Ko Samui, Thailand
Current Conditions -  °F | °C
As of 9:00 AM on Monday 26 Jan 2015 (Local Time) from VTSM Reporting Station
Broken Clouds Broken Clouds  
Wind Chill: 82°   Ceiling: 30000
Heat Index: 88°   Visibility: 4mi
Dew Point: 73°   Wind: 10mph
Humidity: 74%   Direction: 130°SE
Pressure: 30"   Gusts: NA
Location:  9.5°N, 100.01°E
Report Text: VTSM 260200Z 13009KT 6000 FEW020 BKN300 28/23 Q1016 A3002
Loading
Personal Weather Stations






























Interactive Weather Map New forecast layout! Learn more

10-Day Weather Forecast

Advertisements
Track Severe Weather on mobile